Time,TemperatureF,DewpointF,PressureIn,WindDirection,WindDirectionDegrees,WindSpeedMPH,WindSpeedGustMPH,Humidity,HourlyPrecipIn,Conditions,Clouds,dailyrainin,SoftwareType,DateUTC
2013-04-02 02:00:00,20.0,20.0,-100.00,South,183,2.0,4.0,98,-99.99,,,-99.99,,2013-04-02 08:00:00,
2013-04-02 02:43:00,20.0,20.0,-100.00,South,183,2.0,4.0,98,-99.99,,,-99.99,,2013-04-02 08:43:00,
2013-04-02 02:52:00,20.0,20.0,-100.00,South,183,2.0,4.0,98,-99.99,,,-99.99,,2013-04-02 08:52:00,
2013-04-02 04:00:00,19.0,19.0,-100.00,SE,124,1.0,4.0,98,-99.99,,,-99.99,,2013-04-02 10:00:00,
2013-04-02 04:43:00,19.0,19.0,-100.00,SE,124,1.0,4.0,98,-99.99,,,-99.99,,2013-04-02 10:43:00,
2013-04-02 04:52:00,19.0,19.0,-100.00,SE,124,1.0,4.0,98,-99.99,,,-99.99,,2013-04-02 10:52:00,
2013-04-02 06:00:00,16.0,15.0,-100.00,SSW,199,1.0,4.0,97,-99.99,,,-99.99,,2013-04-02 12:00:00,
2013-04-02 06:42:00,16.0,15.0,-100.00,SSW,199,1.0,4.0,97,-99.99,,,-99.99,,2013-04-02 12:42:00,
2013-04-02 06:53:00,16.0,15.0,-100.00,SSW,199,1.0,4.0,97,-99.99,,,-99.99,,2013-04-02 12:53:00,
2013-04-02 07:00:00,14.0,13.0,-100.00,ESE,122,2.0,4.0,96,-99.99,,,-99.99,,2013-04-02 13:00:00,
2013-04-02 07:42:00,14.0,13.0,-100.00,ESE,122,2.0,4.0,96,-99.99,,,-99.99,,2013-04-02 13:42:00,
2013-04-02 07:52:00,14.0,13.0,-100.00,ESE,122,2.0,4.0,96,-99.99,,,-99.99,,2013-04-02 13:52:00,
2013-04-02 10:00:00,21.0,18.0,-100.00,NW,316,2.0,6.0,90,-99.99,,,-99.99,,2013-04-02 16:00:00,
2013-04-02 10:44:00,21.0,18.0,-100.00,NW,316,2.0,6.0,90,-99.99,,,-99.99,,2013-04-02 16:44:00,
2013-04-02 10:53:00,21.0,18.0,-100.00,NW,316,2.0,6.0,90,-99.99,,,-99.99,,2013-04-02 16:53:00,
2013-04-02 11:00:00,23.0,20.0,-100.00,NE,54,4.0,11.0,88,-99.99,,,-99.99,,2013-04-02 17:00:00,
2013-04-02 11:43:00,23.0,20.0,-100.00,NE,54,4.0,11.0,88,-99.99,,,-99.99,,2013-04-02 17:43:00,
2013-04-02 11:55:00,23.0,20.0,-100.00,NE,54,4.0,11.0,88,-99.99,,,-99.99,,2013-04-02 17:55:00,
2013-04-02 13:00:00,23.0,22.0,-100.00,NE,51,13.0,20.0,94,-99.99,,,-99.99,,2013-04-02 19:00:00,
2013-04-02 13:47:00,23.0,22.0,-100.00,NE,51,13.0,20.0,94,-99.99,,,-99.99,,2013-04-02 19:47:00,
2013-04-02 13:57:00,23.0,22.0,-100.00,NE,51,13.0,20.0,94,-99.99,,,-99.99,,2013-04-02 19:57:00,
2013-04-02 19:00:00,20.0,19.0,-100.00,North,358,5.0,10.0,98,-99.99,,,-99.99,,2013-04-03 01:00:00,
2013-04-02 19:43:00,20.0,19.0,-100.00,North,358,5.0,10.0,98,-99.99,,,-99.99,,2013-04-03 01:43:00,
2013-04-02 19:53:00,20.0,19.0,-100.00,North,358,5.0,10.0,98,-99.99,,,-99.99,,2013-04-03 01:53:00,
2013-04-02 20:44:00,19.0,19.0,-100.00,North,4,6.0,11.0,98,-99.99,,,-99.99,,2013-04-03 02:44:00,
2013-04-02 20:53:00,19.0,19.0,-100.00,North,4,6.0,11.0,98,-99.99,,,-99.99,,2013-04-03 02:53:00,
2013-04-02 21:00:00,19.0,18.0,-100.00,North,350,5.0,9.0,98,-99.99,,,-99.99,,2013-04-03 03:00:00,
2013-04-02 21:44:00,19.0,18.0,-100.00,North,350,5.0,9.0,98,-99.99,,,-99.99,,2013-04-03 03:44:00,
2013-04-02 21:54:00,19.0,18.0,-100.00,North,350,5.0,9.0,98,-99.99,,,-99.99,,2013-04-03 03:54:00,
2013-04-02 22:00:00,18.0,17.0,-100.00,North,8,7.0,11.0,98,-99.99,,,-99.99,,2013-04-03 04:00:00,
2013-04-02 22:43:00,18.0,17.0,-100.00,North,8,7.0,11.0,98,-99.99,,,-99.99,,2013-04-03 04:43:00,
2013-04-02 22:53:00,18.0,17.0,-100.00,North,8,7.0,11.0,98,-99.99,,,-99.99,,2013-04-03 04:53:00,
2013-04-02 23:00:00,18.0,17.0,-100.00,NNE,15,7.0,12.0,97,-99.99,,,-99.99,,2013-04-03 05:00:00,
2013-04-02 23:42:00,18.0,17.0,-100.00,NNE,15,7.0,12.0,97,-99.99,,,-99.99,,2013-04-03 05:42:00,
2013-04-02 23:52:00,18.0,17.0,-100.00,NNE,15,7.0,12.0,97,-99.99,,,-99.99,,2013-04-03 05:52:00,